Time;durP1;ratioP1;P1;durP2;ratioP2;P2;SDS_P1;SDS_P2;PMS_P1;PMS_P2;Temp;Humidity;BMP_temperature;BMP_pressure;BME280_temperature;BME280_humidity;BME280_pressure;Samples;Min_cycle;Max_cycle;Signal;HPM_P1;HPM_P2
2021/05/02 00:00:35;;;;;;;5.60;3.35;;;;;;;9.68;59.59;101425.69;5030910;28;20450;-45
2021/05/02 00:03:04;;;;;;;3.97;3.38;;;;;;;9.65;59.38;101424.38;5034040;28;20077;-47
2021/05/02 00:05:34;;;;;;;4.03;3.45;;;;;;;9.65;59.43;101423.56;5032651;28;20050;-44
2021/05/02 00:08:02;;;;;;;5.47;3.20;;;;;;;9.64;59.47;101431.03;5031664;28;20068;-45
2021/05/02 00:10:31;;;;;;;4.43;3.30;;;;;;;9.63;59.60;101434.13;5030862;28;20045;-44
2021/05/02 00:12:58;;;;;;;5.45;3.55;;;;;;;9.58;59.79;101409.41;5031483;28;20569;-45
2021/05/02 00:15:25;;;;;;;6.50;3.58;;;;;;;9.55;59.60;101416.41;5031793;28;20132;-45
2021/05/02 00:17:53;;;;;;;3.92;3.13;;;;;;;9.50;59.81;101411.03;5030777;28;20049;-46
2021/05/02 00:20:25;;;;;;;3.00;2.75;;;;;;;9.48;59.93;101416.03;5029069;28;20034;-46
2021/05/02 00:22:56;;;;;;;5.95;3.72;;;;;;;9.41;60.17;101412.13;5026742;28;20119;-45
2021/05/02 00:25:25;;;;;;;8.05;4.28;;;;;;;9.33;60.59;101401.84;5015015;28;20049;-47
2021/05/02 00:27:53;;;;;;;4.05;2.92;;;;;;;9.28;60.10;101416.63;5033063;28;20136;-47
2021/05/02 00:30:23;;;;;;;4.00;3.05;;;;;;;9.18;60.38;101403.94;5033056;28;20275;-44
2021/05/02 00:32:52;;;;;;;4.85;3.30;;;;;;;9.13;60.34;101403.25;5031831;28;20053;-45
2021/05/02 00:35:24;;;;;;;6.25;3.72;;;;;;;9.11;60.43;101403.56;5032688;28;20149;-46
2021/05/02 00:37:50;;;;;;;;;;;;;;;9.09;60.38;101405.84;5033556;28;20057;-47
2021/05/02 00:40:19;;;;;;;4.32;3.15;;;;;;;9.06;60.17;101400.94;5046501;28;20476;-45
2021/05/02 00:42:52;;;;;;;5.03;3.25;;;;;;;8.99;60.37;101395.09;5032848;28;20168;-45
2021/05/02 00:46:01;;;;;;;7.57;3.88;;;;;;;8.99;61.86;101397.84;5032609;28;20055;-44
2021/05/02 00:48:52;;;;;;;5.18;3.28;;;;;;;8.95;61.05;101399.59;5024261;28;20041;-44
2021/05/02 00:51:22;;;;;;;6.05;4.18;;;;;;;8.97;60.78;101391.84;5032349;28;20447;-44
2021/05/02 00:54:07;;;;;;;5.53;3.72;;;;;;;8.94;61.54;101392.47;5032590;28;20045;-44
2021/05/02 00:56:39;;;;;;;5.00;3.65;;;;;;;8.95;60.86;101390.50;5032625;28;20123;-44
2021/05/02 00:59:07;;;;;;;8.88;4.13;;;;;;;8.88;60.92;101393.72;5032389;28;20128;-44
2021/05/02 01:01:44;;;;;;;5.25;3.38;;;;;;;8.85;61.34;101394.34;5032236;28;20128;-44
2021/05/02 01:04:11;;;;;;;10.27;3.83;;;;;;;8.83;61.40;101388.34;5032443;28;20546;-46
2021/05/02 01:06:41;;;;;;;5.28;3.45;;;;;;;8.82;61.34;101377.59;5031738;28;20042;-44
2021/05/02 01:09:15;;;;;;;7.18;3.63;;;;;;;8.82;61.26;101383.13;5032646;28;20502;-46
2021/05/02 01:11:47;;;;;;;6.30;3.55;;;;;;;8.78;61.36;101394.00;5032298;28;20045;-44
2021/05/02 01:14:22;;;;;;;4.03;3.15;;;;;;;8.74;61.81;101387.47;5033189;28;20069;-45
2021/05/02 01:16:50;;;;;;;4.10;3.20;;;;;;;8.74;61.46;101381.97;5031441;28;20439;-45
2021/05/02 01:19:16;;;;;;;4.70;3.38;;;;;;;8.74;61.53;101392.19;5032418;28;20091;-44
2021/05/02 01:21:46;;;;;;;4.07;3.05;;;;;;;8.71;61.68;101388.13;5031960;28;20095;-44
2021/05/02 01:24:13;;;;;;;5.47;3.13;;;;;;;8.67;61.87;101389.88;5031925;28;20037;-43
2021/05/02 01:26:42;;;;;;;4.10;3.20;;;;;;;8.63;62.04;101388.09;5031477;28;20053;-44
2021/05/02 01:29:09;;;;;;;4.57;3.50;;;;;;;8.60;62.31;101384.00;5031667;28;20089;-45
2021/05/02 01:31:35;;;;;;;7.35;3.33;;;;;;;8.60;62.38;101388.72;5037988;28;20073;-44
2021/05/02 01:34:02;;;;;;;4.32;3.42;;;;;;;8.61;62.45;101382.03;5032028;28;20096;-44
2021/05/02 01:36:29;;;;;;;4.15;3.58;;;;;;;8.62;62.32;101378.16;5031922;28;20115;-44
2021/05/02 01:38:57;;;;;;;8.32;3.30;;;;;;;8.62;62.19;101378.16;5031862;28;20037;-44
2021/05/02 01:41:25;;;;;;;4.05;3.22;;;;;;;8.49;62.55;101379.88;5030998;28;20469;-45
2021/05/02 01:43:52;;;;;;;5.43;4.00;;;;;;;8.46;62.88;101380.50;5031516;28;20096;-43
2021/05/02 01:46:26;;;;;;;5.68;3.53;;;;;;;8.48;63.03;101383.75;5033530;28;20048;-44
2021/05/02 01:48:52;;;;;;;4.82;3.58;;;;;;;8.45;63.16;101385.22;5012175;28;20065;-45
2021/05/02 01:51:20;;;;;;;4.65;4.05;;;;;;;8.35;63.52;101384.66;5013199;28;20068;-45
2021/05/02 01:53:46;;;;;;;4.03;3.00;;;;;;;8.27;63.92;101377.97;5031815;28;20128;-45
2021/05/02 01:56:15;;;;;;;7.65;3.70;;;;;;;8.32;63.54;101380.59;5030482;28;20056;-44
2021/05/02 01:58:43;;;;;;;6.32;3.53;;;;;;;8.45;63.73;101382.47;5029396;28;20049;-46
2021/05/02 02:01:19;;;;;;;5.47;3.33;;;;;;;8.39;63.51;101386.47;5018058;28;20131;-44
2021/05/02 02:03:47;;;;;;;6.15;4.53;;;;;;;8.33;63.65;101375.88;5027689;28;20053;-44
2021/05/02 02:06:15;;;;;;;6.30;3.00;;;;;;;8.24;64.08;101383.25;5018542;28;20041;-43
2021/05/02 02:08:43;;;;;;;6.03;3.83;;;;;;;8.22;64.02;101380.00;5030607;28;20132;-43
2021/05/02 02:11:12;;;;;;;5.80;3.63;;;;;;;8.18;64.24;101379.00;5006945;28;20490;-44
2021/05/02 02:13:39;;;;;;;4.30;3.15;;;;;;;8.13;64.24;101382.69;5030755;28;20085;-44
2021/05/02 02:16:08;;;;;;;5.63;4.72;;;;;;;8.18;64.14;101384.53;4999513;28;20034;-44
2021/05/02 02:18:35;;;;;;;4.32;3.70;;;;;;;8.12;64.43;101383.00;5011948;28;20415;-44
2021/05/02 02:21:02;;;;;;;4.38;3.60;;;;;;;8.11;64.34;101378.63;5017183;28;20041;-44
2021/05/02 02:23:34;;;;;;;3.92;3.53;;;;;;;8.01;64.74;101378.88;5030285;28;20557;-44
2021/05/02 02:26:15;;;;;;;5.03;3.72;;;;;;;7.89;64.85;101384.91;5022886;28;20089;-44
2021/05/02 02:28:46;;;;;;;7.37;4.47;;;;;;;7.80;65.05;101379.34;5025714;28;20455;-44
2021/05/02 02:31:14;;;;;;;5.82;4.28;;;;;;;7.75;64.88;101378.66;5029713;28;20042;-43
2021/05/02 02:33:42;;;;;;;5.78;4.22;;;;;;;7.70;65.09;101378.78;5026013;28;20042;-43
2021/05/02 02:36:13;;;;;;;4.95;3.95;;;;;;;7.63;65.38;101389.38;5014112;28;20038;-43
2021/05/02 02:38:43;;;;;;;5.03;3.70;;;;;;;7.57;65.45;101377.66;5021698;28;20479;-44
2021/05/02 02:41:17;;;;;;;4.28;3.42;;;;;;;7.53;65.34;101384.13;5030506;28;20562;-44
2021/05/02 02:43:56;;;;;;;6.88;4.40;;;;;;;7.52;65.60;101385.25;5023370;28;20042;-45
2021/05/02 02:46:24;;;;;;;4.47;3.55;;;;;;;7.53;65.42;101384.94;5010879;28;20570;-43
2021/05/02 02:48:56;;;;;;;4.93;3.97;;;;;;;7.49;65.45;101380.34;5030202;28;20037;-43
2021/05/02 02:51:27;;;;;;;6.75;4.00;;;;;;;7.43;65.55;101389.84;5004898;28;20045;-44
2021/05/02 02:53:56;;;;;;;5.53;4.30;;;;;;;7.39;65.67;101394.34;5012797;28;20681;-46
2021/05/02 02:56:23;;;;;;;6.13;4.00;;;;;;;7.34;65.75;101390.56;5019978;28;20125;-43
2021/05/02 02:59:08;;;;;;;6.28;4.18;;;;;;;7.31;65.81;101387.59;5020106;28;20093;-45
2021/05/02 03:01:37;;;;;;;4.93;4.43;;;;;;;7.27;66.16;101386.59;5007211;28;20115;-44
2021/05/02 03:04:06;;;;;;;6.15;3.53;;;;;;;7.26;66.01;101379.47;5018275;28;20477;-44
2021/05/02 03:06:34;;;;;;;6.57;4.07;;;;;;;7.24;66.02;101389.97;5013336;28;20042;-46
2021/05/02 03:09:00;;;;;;;5.18;4.25;;;;;;;7.25;65.68;101392.41;5022279;28;20132;-43
2021/05/02 03:11:27;;;;;;;7.88;4.68;;;;;;;7.24;65.60;101390.78;5026566;28;20038;-47
2021/05/02 03:13:54;;;;;;;5.28;4.10;;;;;;;7.18;65.95;101393.94;5034050;28;20041;-44
2021/05/02 03:16:25;;;;;;;6.43;4.30;;;;;;;7.13;66.43;101391.28;5022751;28;20073;-43
2021/05/02 03:19:23;;;;;;;5.55;3.88;;;;;;;7.08;66.70;101396.91;5021334;28;20046;-45
2021/05/02 03:22:07;;;;;;;6.30;4.63;;;;;;;7.16;66.31;101399.78;5022967;28;20049;-44
2021/05/02 03:24:41;;;;;;;5.78;4.38;;;;;;;7.17;66.06;101386.81;5016214;28;20097;-44
2021/05/02 03:27:18;;;;;;;5.65;4.20;;;;;;;7.15;66.05;101384.34;5019778;28;20132;-44
2021/05/02 03:29:47;;;;;;;5.15;4.13;;;;;;;7.08;66.09;101385.91;5032805;28;20069;-43
2021/05/02 03:32:15;;;;;;;6.07;4.10;;;;;;;7.00;66.29;101395.69;5019883;28;20080;-44
2021/05/02 03:34:44;;;;;;;5.90;4.60;;;;;;;6.93;66.61;101388.97;5014818;28;20052;-44
2021/05/02 03:37:14;;;;;;;6.50;4.47;;;;;;;6.86;66.67;101396.81;5025393;28;20057;-43
2021/05/02 03:39:46;;;;;;;7.88;4.72;;;;;;;6.82;66.79;101395.78;5017158;28;20042;-43
2021/05/02 03:42:12;;;;;;;8.65;4.22;;;;;;;6.78;67.12;101401.06;5028930;28;20443;-43
2021/05/02 03:44:38;;;;;;;6.40;4.55;;;;;;;6.80;66.84;101392.53;5018547;28;20088;-44
2021/05/02 03:47:05;;;;;;;5.25;4.47;;;;;;;6.80;67.15;101395.28;5018369;28;20038;-47
2021/05/02 03:49:32;;;;;;;5.90;4.68;;;;;;;6.83;66.86;101391.91;5029699;28;20054;-46
2021/05/02 03:51:59;;;;;;;5.15;4.38;;;;;;;6.85;66.95;101397.94;5027722;28;20076;-45
2021/05/02 03:54:25;;;;;;;8.88;4.88;;;;;;;6.82;66.69;101396.59;5014362;28;20070;-44
2021/05/02 03:56:52;;;;;;;7.80;5.32;;;;;;;6.80;67.03;101390.59;5023003;28;20136;-44
2021/05/02 03:59:23;;;;;;;5.05;4.55;;;;;;;6.78;67.04;101394.78;5024116;28;20518;-45
2021/05/02 04:01:58;;;;;;;7.28;5.80;;;;;;;6.77;67.04;101409.63;5029270;28;20538;-44
2021/05/02 04:04:27;;;;;;;7.70;4.97;;;;;;;6.78;66.98;101405.78;5026061;28;20045;-45
2021/05/02 04:07:10;;;;;;;5.90;4.35;;;;;;;6.74;67.38;101400.88;5021950;28;20069;-45
2021/05/02 04:09:46;;;;;;;5.03;4.38;;;;;;;6.73;67.05;101403.91;5033422;28;20037;-42
2021/05/02 04:12:13;;;;;;;6.43;4.80;;;;;;;6.76;67.27;101403.31;5019341;28;20038;-45
2021/05/02 04:14:40;;;;;;;6.32;4.97;;;;;;;6.74;66.88;101411.88;5033654;28;20518;-45
2021/05/02 04:17:14;;;;;;;6.93;4.50;;;;;;;6.66;67.43;101404.31;5033106;28;20042;-44
2021/05/02 04:19:44;;;;;;;6.93;4.88;;;;;;;6.67;67.19;101396.91;5014808;28;20042;-45
2021/05/02 04:22:20;;;;;;;5.30;4.70;;;;;;;6.66;67.70;101406.25;5023863;28;20049;-44
2021/05/02 04:24:48;;;;;;;5.70;4.45;;;;;;;6.66;67.33;101409.81;5033412;28;20076;-44
2021/05/02 04:27:15;;;;;;;6.03;4.93;;;;;;;6.63;67.25;101407.69;5017424;28;20068;-43
2021/05/02 04:29:41;;;;;;;5.28;4.50;;;;;;;6.62;67.78;101411.53;5018717;28;20045;-49
2021/05/02 04:32:08;;;;;;;6.50;5.03;;;;;;;6.64;67.16;101403.81;5029241;28;20123;-43
2021/05/02 04:34:34;;;;;;;7.35;4.80;;;;;;;6.64;67.49;101403.00;5033506;28;20410;-44
2021/05/02 04:37:01;;;;;;;6.15;4.32;;;;;;;6.69;67.59;101408.41;5021357;28;20076;-47
2021/05/02 04:39:30;;;;;;;7.18;4.60;;;;;;;6.74;67.16;101411.88;5025476;28;20128;-45
2021/05/02 04:41:57;;;;;;;5.72;4.43;;;;;;;6.78;67.08;101422.28;5032403;28;20128;-43
2021/05/02 04:44:24;;;;;;;7.68;4.57;;;;;;;6.69;67.35;101422.97;5033329;28;20063;-46
2021/05/02 04:46:52;;;;;;;7.07;4.25;;;;;;;6.66;67.35;101415.31;5028795;28;20034;-46
2021/05/02 04:49:21;;;;;;;6.25;4.43;;;;;;;6.64;67.38;101425.84;5023768;28;20041;-44
2021/05/02 04:51:47;;;;;;;7.53;4.78;;;;;;;6.58;67.70;101424.28;5021147;28;20523;-43
2021/05/02 04:54:14;;;;;;;7.95;4.43;;;;;;;6.59;67.50;101425.88;4996723;28;20199;-45
2021/05/02 04:56:40;;;;;;;6.95;4.80;;;;;;;6.61;67.41;101422.84;5031889;28;20077;-46
2021/05/02 04:59:07;;;;;;;7.95;4.82;;;;;;;6.61;67.67;101420.09;5032241;28;20049;-46
2021/05/02 05:01:37;;;;;;;6.75;4.88;;;;;;;6.60;67.78;101422.03;5032558;28;20132;-48
2021/05/02 05:04:05;;;;;;;7.88;4.78;;;;;;;6.55;67.66;101429.56;5014878;28;20076;-44
2021/05/02 05:06:33;;;;;;;6.32;4.93;;;;;;;6.59;67.64;101425.88;5032729;28;20092;-44
2021/05/02 05:08:59;;;;;;;5.53;4.65;;;;;;;6.56;68.19;101426.53;5032867;28;20045;-44
2021/05/02 05:11:26;;;;;;;5.80;4.95;;;;;;;6.52;68.00;101430.97;5032791;28;20756;-45
2021/05/02 05:13:52;;;;;;;7.65;5.32;;;;;;;6.51;68.02;101429.34;5031944;28;20455;-44
2021/05/02 05:16:18;;;;;;;6.40;5.45;;;;;;;6.55;68.09;101435.88;5032621;28;20073;-45
2021/05/02 05:18:45;;;;;;;7.70;5.50;;;;;;;6.56;67.93;101437.53;5031759;28;20049;-44
2021/05/02 05:21:11;;;;;;;8.00;6.45;;;;;;;6.54;67.91;101445.25;5031512;28;20482;-46
2021/05/02 05:23:38;;;;;;;6.57;4.68;;;;;;;6.60;67.93;101444.03;5032200;28;20065;-46
2021/05/02 05:26:04;;;;;;;7.93;6.07;;;;;;;6.58;68.06;101440.78;5032026;28;20042;-46
2021/05/02 05:28:30;;;;;;;9.48;5.93;;;;;;;6.59;68.35;101445.16;5032787;28;20084;-45
2021/05/02 05:30:57;;;;;;;8.65;5.13;;;;;;;6.61;68.13;101450.38;5031348;28;20045;-44
2021/05/02 05:33:28;;;;;;;12.63;6.65;;;;;;;6.59;68.48;101458.91;5014077;28;20439;-45
2021/05/02 05:35:55;;;;;;;8.43;6.20;;;;;;;6.60;68.60;101449.53;5032247;28;20079;-44
2021/05/02 05:38:21;;;;;;;9.20;5.90;;;;;;;6.66;68.42;101456.59;5032080;28;20060;-44
2021/05/02 05:40:48;;;;;;;7.78;5.97;;;;;;;6.61;68.66;101456.69;5013821;28;20145;-48
2021/05/02 05:43:14;;;;;;;8.15;6.25;;;;;;;6.62;69.01;101449.22;5032222;28;20080;-48
2021/05/02 05:45:41;;;;;;;8.10;6.28;;;;;;;6.62;69.01;101450.06;5017696;28;20143;-43
2021/05/02 05:48:07;;;;;;;10.15;6.10;;;;;;;6.65;68.74;101454.13;5052117;28;20451;-45
2021/05/02 05:50:34;;;;;;;10.02;6.43;;;;;;;6.67;68.91;101460.97;5041417;28;20045;-49
2021/05/02 05:53:00;;;;;;;8.27;5.70;;;;;;;6.71;69.18;101463.94;5031523;28;20140;-49
2021/05/02 05:55:27;;;;;;;8.82;6.35;;;;;;;6.81;69.30;101465.69;5031262;28;20510;-45
2021/05/02 05:57:53;;;;;;;7.22;5.60;;;;;;;6.88;69.13;101460.63;5031105;28;20084;-47
2021/05/02 06:00:22;;;;;;;10.05;7.10;;;;;;;6.96;69.18;101459.94;5030853;28;20446;-46
2021/05/02 06:02:49;;;;;;;7.82;5.82;;;;;;;7.01;69.03;101466.16;5031689;28;20049;-44
2021/05/02 06:05:19;;;;;;;6.82;5.32;;;;;;;7.10;69.07;101463.50;5031799;28;20041;-45
2021/05/02 06:07:46;;;;;;;8.57;5.35;;;;;;;7.08;68.94;101463.00;5031497;28;20136;-45
2021/05/02 06:10:12;;;;;;;7.22;5.55;;;;;;;7.08;68.95;101465.75;5030740;28;20096;-47
2021/05/02 06:12:42;;;;;;;7.43;5.72;;;;;;;7.07;69.30;101469.63;5013888;28;20056;-43
2021/05/02 06:15:13;;;;;;;7.07;5.90;;;;;;;7.06;68.95;101466.06;5031735;28;20045;-44
2021/05/02 06:17:40;;;;;;;7.60;5.50;;;;;;;7.09;69.20;101467.38;5031300;28;20073;-47
2021/05/02 06:20:08;;;;;;;6.35;5.22;;;;;;;7.13;68.67;101466.47;5038669;28;20120;-44
2021/05/02 06:22:34;;;;;;;6.97;5.15;;;;;;;7.16;69.08;101459.53;5030963;28;20121;-44
2021/05/02 06:25:01;;;;;;;7.35;6.57;;;;;;;7.13;69.12;101463.72;5031338;28;20414;-43
2021/05/02 06:27:28;;;;;;;5.88;5.28;;;;;;;7.15;69.14;101460.63;5029846;28;20076;-45
2021/05/02 06:29:54;;;;;;;9.90;5.70;;;;;;;7.16;69.02;101473.28;5030753;28;20406;-48
2021/05/02 06:32:21;;;;;;;6.88;5.38;;;;;;;7.18;69.10;101477.38;5030200;28;20045;-45
2021/05/02 06:34:47;;;;;;;7.75;5.60;;;;;;;7.22;69.25;101472.09;5031556;28;20100;-44
2021/05/02 06:37:13;;;;;;;11.93;6.47;;;;;;;7.23;69.31;101474.53;5033414;28;20107;-45
2021/05/02 06:39:41;;;;;;;7.68;5.63;;;;;;;7.27;69.43;101474.75;5031459;28;20649;-47
2021/05/02 06:42:07;;;;;;;7.20;5.43;;;;;;;7.33;69.22;101473.53;5030339;28;20072;-47
2021/05/02 06:44:34;;;;;;;9.68;5.18;;;;;;;7.41;69.19;101472.81;5031849;28;20522;-44
2021/05/02 06:47:00;;;;;;;7.22;5.45;;;;;;;7.45;69.20;101476.56;5030570;28;20128;-50
2021/05/02 06:49:27;;;;;;;9.35;5.45;;;;;;;7.46;69.44;101477.41;5013379;28;20200;-43
2021/05/02 06:51:53;;;;;;;7.85;6.18;;;;;;;7.46;69.20;101478.22;5030400;28;20084;-48
2021/05/02 06:54:19;;;;;;;8.90;6.15;;;;;;;7.52;69.46;101476.97;5047339;28;20049;-47
2021/05/02 06:56:46;;;;;;;5.90;5.10;;;;;;;7.58;69.29;101475.75;5031021;28;20140;-44
2021/05/02 06:59:12;;;;;;;7.53;5.93;;;;;;;7.67;69.18;101484.94;5030729;28;20075;-46
2021/05/02 07:01:39;;;;;;;6.50;5.43;;;;;;;7.69;68.94;101477.19;5030479;28;20104;-44
2021/05/02 07:04:06;;;;;;;7.60;5.68;;;;;;;7.73;69.11;101483.69;5031251;28;20064;-44
2021/05/02 07:06:33;;;;;;;8.63;5.75;;;;;;;7.79;68.88;101476.94;5029425;28;20041;-49
2021/05/02 07:09:03;;;;;;;8.82;5.72;;;;;;;7.83;68.83;101477.97;5030371;28;20051;-45
2021/05/02 07:11:29;;;;;;;6.50;4.47;;;;;;;7.88;69.08;101485.31;5031466;28;20041;-46
2021/05/02 07:13:55;;;;;;;6.57;4.40;;;;;;;7.90;69.03;101481.13;5013289;28;20108;-46
2021/05/02 07:16:22;;;;;;;8.75;4.85;;;;;;;7.93;69.20;101483.25;5029929;28;20795;-46
2021/05/02 07:18:51;;;;;;;6.53;5.10;;;;;;;8.00;69.18;101488.34;5030715;28;20384;-45
2021/05/02 07:21:19;;;;;;;8.73;5.80;;;;;;;8.04;68.87;101489.38;5031070;28;20045;-47
2021/05/02 07:23:52;;;;;;;7.85;5.25;;;;;;;8.08;68.58;101481.28;5012344;28;20057;-46
2021/05/02 07:26:21;;;;;;;6.18;5.20;;;;;;;8.12;68.72;101474.84;5023431;28;20124;-46
2021/05/02 07:28:49;;;;;;;7.85;4.88;;;;;;;8.19;68.73;101479.91;5034747;28;20046;-46
2021/05/02 07:31:16;;;;;;;7.47;5.35;;;;;;;8.31;68.57;101483.78;5011887;28;20076;-44
2021/05/02 07:33:42;;;;;;;8.00;6.53;;;;;;;8.48;68.45;101485.88;5030485;28;20141;-48
2021/05/02 07:36:09;;;;;;;6.90;4.65;;;;;;;8.70;68.69;101490.56;5029251;28;20049;-46
2021/05/02 07:38:36;;;;;;;8.55;5.57;;;;;;;8.90;68.51;101479.00;5029957;28;20080;-47
2021/05/02 07:41:05;;;;;;;5.50;4.63;;;;;;;8.98;68.30;101484.59;5030290;28;20044;-44
2021/05/02 07:43:34;;;;;;;6.65;5.00;;;;;;;9.01;67.88;101474.84;5016711;28;20045;-46
2021/05/02 07:46:07;;;;;;;6.05;5.13;;;;;;;9.02;67.96;101480.06;5038285;28;20041;-48
2021/05/02 07:48:37;;;;;;;5.15;4.13;;;;;;;9.03;68.03;101476.16;5033265;28;20041;-51
2021/05/02 07:51:07;;;;;;;8.43;5.93;;;;;;;9.09;68.66;101476.84;5033876;28;20395;-49
2021/05/02 07:53:36;;;;;;;6.68;4.57;;;;;;;9.20;68.75;101480.97;5034101;28;20049;-44
2021/05/02 07:56:02;;;;;;;8.05;4.90;;;;;;;9.35;69.13;101485.22;5033328;28;20038;-45
2021/05/02 07:58:30;;;;;;;5.78;4.20;;;;;;;9.48;69.42;101473.25;5032387;28;20132;-49
2021/05/02 08:00:56;;;;;;;5.53;4.70;;;;;;;9.67;69.52;101473.81;5033962;28;20137;-47
2021/05/02 08:03:22;;;;;;;5.53;4.68;;;;;;;9.88;70.13;101476.78;5015752;28;20569;-44
2021/05/02 08:05:49;;;;;;;6.10;4.75;;;;;;;10.08;71.02;101474.22;5032990;28;20065;-44
2021/05/02 08:08:15;;;;;;;6.75;4.13;;;;;;;10.32;71.74;101477.38;5001643;28;20145;-46
2021/05/02 08:10:42;;;;;;;6.72;4.30;;;;;;;10.65;71.89;101474.06;5019420;28;20045;-45
2021/05/02 08:13:08;;;;;;;5.70;4.13;;;;;;;11.08;71.35;101474.78;5033105;28;20372;-48
2021/05/02 08:15:35;;;;;;;6.68;4.38;;;;;;;11.60;69.74;101478.97;5033410;28;20065;-43
2021/05/02 08:18:02;;;;;;;5.90;4.20;;;;;;;12.14;67.94;101471.66;5034293;28;20049;-44
2021/05/02 08:20:28;;;;;;;10.95;5.25;;;;;;;12.70;65.75;101472.97;5038829;28;20100;-43
2021/05/02 08:22:55;;;;;;;6.57;4.68;;;;;;;13.24;63.78;101481.22;5036584;28;20053;-43
2021/05/02 08:25:21;;;;;;;5.82;3.70;;;;;;;13.87;61.60;101472.19;5040542;28;20073;-44
2021/05/02 08:27:49;;;;;;;4.15;3.67;;;;;;;14.45;59.78;101475.59;5021055;28;20171;-44
2021/05/02 08:30:16;;;;;;;3.75;3.38;;;;;;;15.08;57.94;101471.78;5027863;28;20514;-47
2021/05/02 08:32:42;;;;;;;5.55;3.70;;;;;;;15.70;56.27;101470.22;5030855;28;20059;-44
2021/05/02 08:35:09;;;;;;;5.20;4.10;;;;;;;16.09;55.37;101471.13;5030194;28;20678;-49
2021/05/02 08:37:36;;;;;;;4.60;3.65;;;;;;;16.50;53.97;101472.38;5030562;28;20112;-45
2021/05/02 08:40:04;;;;;;;5.13;3.40;;;;;;;16.49;52.28;101468.00;5030971;28;20087;-44
2021/05/02 08:42:30;;;;;;;7.20;3.80;;;;;;;16.69;51.20;101469.63;5030380;28;20795;-46
2021/05/02 08:44:59;;;;;;;4.28;3.67;;;;;;;17.09;50.56;101472.00;5032051;28;20450;-46
2021/05/02 08:47:26;;;;;;;4.80;3.20;;;;;;;17.42;49.77;101478.59;5030274;28;20834;-46
2021/05/02 08:49:53;;;;;;;4.05;3.22;;;;;;;17.67;49.16;101470.63;5030722;28;20048;-45
2021/05/02 08:52:20;;;;;;;4.32;3.67;;;;;;;17.91;48.65;101477.81;5029509;28;20065;-47
2021/05/02 08:54:47;;;;;;;4.70;3.38;;;;;;;18.19;47.84;101483.81;5030376;28;20732;-44
2021/05/02 08:57:13;;;;;;;7.25;4.13;;;;;;;18.49;47.07;101476.28;5030280;28;20037;-46
2021/05/02 08:59:40;;;;;;;5.22;2.83;;;;;;;18.71;45.59;101478.16;5029427;28;20454;-49
2021/05/02 09:02:07;;;;;;;102.43;66.55;;;;;;;18.76;44.90;101486.22;5011628;28;20042;-46
2021/05/02 09:04:40;;;;;;;5.30;4.20;;;;;;;18.85;44.18;101481.09;5012495;28;20041;-48
2021/05/02 09:07:14;;;;;;;25.13;19.83;;;;;;;18.98;43.25;101480.84;5012862;28;20495;-48
2021/05/02 09:09:44;;;;;;;5.30;3.95;;;;;;;19.02;42.75;101476.06;5030686;28;20072;-47
2021/05/02 09:12:23;;;;;;;;;;;;;;;18.60;42.93;101477.22;5029332;28;20565;-48
2021/05/02 09:14:51;;;;;;;3.00;2.65;;;;;;;18.82;43.57;101470.66;5030273;28;19960;-46
2021/05/02 09:17:27;;;;;;;4.13;2.10;;;;;;;18.97;42.80;101474.44;5029519;28;20075;-46
2021/05/02 09:19:56;;;;;;;3.42;2.47;;;;;;;19.18;42.05;101479.47;5028001;28;20573;-50
2021/05/02 09:22:25;;;;;;;6.53;3.20;;;;;;;19.30;41.60;101476.38;5015933;28;20065;-50
2021/05/02 09:25:10;;;;;;;3.30;2.83;;;;;;;19.66;40.50;101478.31;5036766;28;20049;-51
2021/05/02 09:27:48;;;;;;;4.35;2.45;;;;;;;19.70;39.57;101478.34;5026624;28;20292;-47
2021/05/02 09:30:18;;;;;;;4.80;3.22;;;;;;;19.57;39.95;101463.78;5026812;28;20053;-48
2021/05/02 09:32:45;;;;;;;4.35;2.25;;;;;;;19.62;39.97;101476.69;5026665;28;20194;-45
2021/05/02 09:35:32;;;;;;;4.20;3.17;;;;;;;19.61;39.28;101466.63;5029948;28;20550;-47
2021/05/02 09:38:15;;;;;;;7.20;4.22;;;;;;;19.18;38.82;101471.03;5027566;28;20041;-49
2021/05/02 09:40:54;;;;;;;5.07;2.63;;;;;;;18.71;40.23;101471.72;5012150;28;20077;-48
2021/05/02 09:43:31;;;;;;;4.60;3.13;;;;;;;18.88;39.79;101482.34;5037080;28;20109;-49
2021/05/02 09:46:08;;;;;;;3.47;2.90;;;;;;;18.95;38.52;101464.78;5034230;28;20045;-49
2021/05/02 09:48:34;;;;;;;4.10;2.80;;;;;;;18.19;40.32;101472.63;5010517;28;20115;-55
2021/05/02 09:51:13;;;;;;;5.13;2.65;;;;;;;18.26;40.13;101472.72;5031148;28;20041;-52
2021/05/02 09:54:07;;;;;;;3.55;2.47;;;;;;;17.72;40.13;101473.13;5028021;28;20041;-45
2021/05/02 09:56:39;;;;;;;6.72;3.50;;;;;;;16.81;40.87;101463.88;5028898;28;20394;-46
2021/05/02 09:59:17;;;;;;;;;;;;;;;15.94;41.58;101475.53;5027324;28;20064;-45
2021/05/02 10:02:10;;;;;;;8.00;3.30;;;;;;;15.55;42.68;101476.59;5034997;28;20016;-47
2021/05/02 10:04:49;;;;;;;3.72;2.55;;;;;;;15.24;42.17;101474.59;5029060;28;20072;-49
2021/05/02 10:07:18;;;;;;;4.97;2.50;;;;;;;15.29;42.44;101481.88;5027733;28;20131;-45
2021/05/02 10:09:44;;;;;;;3.60;2.33;;;;;;;15.95;42.60;101471.59;5027968;28;20069;-45
2021/05/02 10:12:14;;;;;;;5.35;2.83;;;;;;;16.61;41.70;101460.28;5028324;28;20132;-45
2021/05/02 10:14:42;;;;;;;2.85;2.20;;;;;;;17.25;41.15;101461.50;5027692;28;20081;-45
2021/05/02 10:17:10;;;;;;;3.15;2.38;;;;;;;17.64;40.86;101461.00;5012234;28;20725;-45
2021/05/02 10:19:41;;;;;;;5.40;2.83;;;;;;;17.96;40.24;101464.28;5025509;28;20049;-45
2021/05/02 10:22:08;;;;;;;5.07;2.13;;;;;;;18.31;39.89;101452.78;5029473;28;20128;-50
2021/05/02 10:24:35;;;;;;;2.40;2.20;;;;;;;18.56;39.25;101448.31;5046407;28;20376;-45
2021/05/02 10:27:08;;;;;;;3.15;1.92;;;;;;;18.66;38.92;101456.06;5027398;28;20509;-51
2021/05/02 10:29:39;;;;;;;3.80;1.70;;;;;;;18.81;38.51;101457.84;5028304;28;20054;-48
2021/05/02 10:33:32;;;;;;;2.00;1.50;;;;;;;18.21;36.83;101456.25;5126651;27;20373;-50
2021/05/02 10:36:01;;;;;;;2.90;1.73;;;;;;;17.74;37.91;101450.34;5104957;28;20043;-45
2021/05/02 10:38:46;;;;;;;3.17;1.80;;;;;;;17.81;37.61;101450.47;5105723;28;20075;-46
2021/05/02 10:41:35;;;;;;;2.05;1.70;;;;;;;17.83;38.62;101453.69;5105945;28;20040;-45
2021/05/02 10:44:07;;;;;;;2.22;1.50;;;;;;;17.78;38.46;101448.41;5105555;28;20040;-49
2021/05/02 10:46:56;;;;;;;1.27;1.17;;;;;;;17.61;38.69;101447.75;5105919;28;20089;-47
2021/05/02 10:49:27;;;;;;;1.85;1.35;;;;;;;17.35;38.62;101446.88;5105216;28;20730;-49
2021/05/02 10:51:57;;;;;;;2.60;2.40;;;;;;;16.66;39.14;101451.59;5105437;28;20144;-49
2021/05/02 10:54:43;;;;;;;3.13;2.00;;;;;;;16.02;39.89;101443.81;5105632;28;20040;-50
2021/05/02 10:57:35;;;;;;;2.47;1.65;;;;;;;15.71;40.09;101461.47;5087881;28;20052;-45
2021/05/02 11:00:08;;;;;;;2.53;1.85;;;;;;;15.70;40.25;101453.47;5105131;28;20126;-47
2021/05/02 11:02:44;;;;;;;1.83;1.67;;;;;;;15.73;40.00;101453.53;5106265;28;20070;-45
2021/05/02 11:05:13;;;;;;;3.78;1.80;;;;;;;15.97;39.95;101451.66;5105271;28;20050;-48
2021/05/02 11:07:41;;;;;;;1.83;1.33;;;;;;;16.15;39.96;101459.28;5094358;28;20132;-51
2021/05/02 11:10:10;;;;;;;3.95;1.65;;;;;;;15.96;39.53;101462.06;5106640;28;20130;-46
2021/05/02 11:12:37;;;;;;;2.17;1.98;;;;;;;15.50;39.36;101448.97;5105898;28;20052;-47
2021/05/02 11:15:26;;;;;;;2.40;1.80;;;;;;;15.42;38.76;101459.13;5087120;28;20732;-47
2021/05/02 11:17:53;;;;;;;2.50;1.95;;;;;;;15.37;39.50;101462.19;5105679;28;20048;-45
2021/05/02 11:20:50;;;;;;;2.22;2.00;;;;;;;15.29;39.27;101451.19;5105942;28;20071;-48
2021/05/02 11:23:19;;;;;;;2.97;1.90;;;;;;;15.10;39.67;101452.72;5104773;28;20088;-44
2021/05/02 11:26:02;;;;;;;3.08;2.28;;;;;;;15.06;39.83;101446.22;5098061;28;20386;-46
2021/05/02 11:28:55;;;;;;;2.15;1.30;;;;;;;15.15;39.74;101446.06;5105718;28;20043;-46
2021/05/02 11:31:42;;;;;;;2.15;1.73;;;;;;;15.18;39.39;101443.38;5105973;28;20139;-45
2021/05/02 11:34:09;;;;;;;2.55;2.30;;;;;;;15.18;39.75;101445.34;5104288;28;20068;-47
2021/05/02 11:36:39;;;;;;;3.25;2.53;;;;;;;14.90;40.11;101431.47;5105977;28;20039;-47
2021/05/02 11:39:07;;;;;;;3.17;1.90;;;;;;;14.72;40.14;101443.31;5105711;28;20161;-48
2021/05/02 11:42:02;;;;;;;3.78;2.00;;;;;;;14.59;39.77;101436.97;5104566;28;20052;-46
2021/05/02 11:44:38;;;;;;;3.95;2.00;;;;;;;14.72;40.26;101435.72;5092701;28;20536;-46
2021/05/02 11:47:11;;;;;;;1.58;1.20;;;;;;;14.97;39.85;101431.66;5089986;28;20163;-45